createdAt,value
2022-09-01T00:00:01.941Z,15.13
2022-09-01T00:02:30.930Z,13.13
2022-09-01T00:04:59.498Z,14.60
2022-09-01T00:07:30.392Z,14.90
2022-09-01T00:09:58.977Z,14.17
2022-09-01T00:12:28.085Z,13.53
2022-09-01T00:14:56.271Z,15.10
2022-09-01T00:17:26.071Z,15.67
2022-09-01T00:19:54.163Z,13.83
2022-09-01T00:22:22.239Z,14.30
2022-09-01T00:24:50.369Z,14.30
2022-09-01T00:27:18.680Z,14.37
2022-09-01T00:29:46.998Z,15.00
2022-09-01T00:32:15.143Z,14.00
2022-09-01T00:34:44.536Z,14.07
2022-09-01T00:37:12.855Z,15.60
2022-09-01T00:39:41.289Z,14.83
2022-09-01T00:42:10.088Z,14.70
2022-09-01T00:44:38.454Z,14.67
2022-09-01T00:47:07.807Z,14.97
2022-09-01T00:49:39.821Z,14.60
2022-09-01T00:52:13.798Z,14.40
2022-09-01T00:54:45.699Z,16.03
2022-09-01T00:57:14.417Z,15.40
2022-09-01T00:59:49.934Z,13.97
2022-09-01T01:02:18.044Z,14.37
2022-09-01T01:04:46.264Z,15.47
2022-09-01T01:07:17.288Z,16.10
2022-09-01T01:09:47.184Z,15.00
2022-09-01T01:12:18.446Z,15.03
2022-09-01T01:14:47.973Z,16.13
2022-09-01T01:17:15.957Z,14.00
2022-09-01T01:20:04.570Z,16.60
2022-09-01T01:22:58.380Z,15.70
2022-09-01T01:25:28.045Z,13.73
2022-09-01T01:28:06.251Z,16.47
2022-09-01T01:30:35.627Z,15.90
2022-09-01T01:33:04.158Z,14.43
2022-09-01T01:35:33.769Z,16.80
2022-09-01T01:38:03.607Z,14.40
2022-09-01T01:40:33.038Z,15.67
2022-09-01T01:43:01.840Z,16.90
2022-09-01T01:45:30.879Z,14.67
2022-09-01T01:47:59.259Z,14.33
2022-09-01T01:50:35.603Z,14.77
2022-09-01T01:53:10.825Z,14.87
2022-09-01T01:55:41.708Z,16.60
2022-09-01T01:58:12.465Z,15.30
2022-09-01T02:00:42.962Z,15.50
2022-09-01T02:03:12.727Z,14.37
2022-09-01T02:05:41.241Z,14.73
2022-09-01T02:08:11.609Z,15.13
2022-09-01T02:10:44.115Z,15.60
2022-09-01T02:13:16.457Z,14.23
2022-09-01T02:15:47.114Z,15.20
2022-09-01T02:18:19.200Z,12.80
2022-09-01T02:20:49.486Z,14.53
2022-09-01T02:23:20.133Z,15.13
2022-09-01T02:26:14.710Z,14.57
2022-09-01T02:28:40.083Z,14.60
2022-09-01T02:31:09.569Z,13.80
2022-09-01T02:33:37.993Z,17.27
2022-09-01T02:36:09.069Z,14.93
2022-09-01T02:38:38.851Z,13.50
2022-09-01T02:41:08.359Z,14.33
2022-09-01T02:43:36.329Z,15.77
2022-09-01T02:46:06.386Z,14.17
2022-09-01T02:48:37.279Z,15.10
2022-09-01T02:51:08.564Z,14.13
2022-09-01T02:53:37.789Z,15.03
2022-09-01T02:56:14.426Z,16.20
2022-09-01T02:58:46.903Z,14.63
2022-09-01T03:01:24.814Z,14.80
2022-09-01T03:03:57.219Z,15.90
2022-09-01T03:06:26.098Z,14.10
2022-09-01T03:08:59.612Z,13.63
2022-09-01T03:11:30.465Z,13.97
2022-09-01T03:13:58.489Z,14.43
2022-09-01T03:16:26.491Z,15.17
2022-09-01T03:18:54.933Z,14.00
2022-09-01T03:21:23.681Z,13.30
2022-09-01T03:23:53.204Z,14.70
2022-09-01T03:26:23.845Z,13.47
2022-09-01T03:28:53.836Z,13.40
2022-09-01T03:31:22.628Z,14.00
2022-09-01T03:33:51.133Z,13.70
2022-09-01T03:36:20.268Z,13.77
2022-09-01T03:38:49.680Z,15.43
2022-09-01T03:41:19.781Z,13.20
2022-09-01T03:43:48.587Z,13.57
2022-09-01T03:46:21.912Z,14.33
2022-09-01T03:48:53.177Z,13.10
2022-09-01T03:51:23.070Z,12.83
2022-09-01T03:53:55.651Z,14.70
2022-09-01T03:56:27.334Z,13.40
2022-09-01T03:58:56.874Z,14.20
2022-09-01T04:01:27.805Z,13.67
2022-09-01T04:03:55.863Z,16.10
2022-09-01T04:06:26.074Z,13.63
2022-09-01T04:08:57.779Z,15.17
2022-09-01T04:11:26.596Z,14.97
2022-09-01T04:13:54.722Z,13.77
2022-09-01T04:16:43.303Z,15.60
2022-09-01T04:19:25.139Z,16.00
2022-09-01T04:21:55.117Z,14.90
2022-09-01T04:24:24.886Z,15.17
2022-09-01T04:26:54.384Z,15.13
2022-09-01T04:29:27.532Z,14.10
2022-09-01T04:31:56.557Z,13.83
2022-09-01T04:34:27.030Z,15.97
2022-09-01T04:36:55.419Z,15.10
2022-09-01T04:39:24.636Z,16.83
2022-09-01T04:41:52.620Z,15.40
2022-09-01T04:44:20.676Z,15.93
2022-09-01T04:46:50.802Z,16.53
2022-09-01T04:49:22.484Z,15.03
2022-09-01T04:51:54.378Z,16.87
2022-09-01T04:54:24.347Z,13.90
2022-09-01T04:56:55.195Z,16.03
2022-09-01T04:59:27.162Z,14.93
2022-09-01T05:01:57.706Z,14.50
2022-09-01T05:04:28.117Z,15.50
2022-09-01T05:07:01.189Z,15.23
2022-09-01T05:09:30.907Z,15.53
2022-09-01T05:12:08.963Z,13.47
2022-09-01T05:14:36.949Z,15.97
2022-09-01T05:17:10.304Z,16.87
2022-09-01T05:19:38.618Z,14.30
2022-09-01T05:22:08.971Z,16.63
2022-09-01T05:24:41.764Z,16.30
2022-09-01T05:27:10.584Z,16.03
2022-09-01T05:29:39.653Z,16.23
2022-09-01T05:32:10.062Z,15.20
2022-09-01T05:34:39.849Z,15.87
2022-09-01T05:37:11.958Z,14.23
2022-09-01T05:39:40.343Z,14.07
2022-09-01T05:42:09.033Z,14.07
2022-09-01T05:44:37.138Z,14.47
2022-09-01T05:47:06.613Z,12.40
2022-09-01T05:49:34.561Z,14.67
2022-09-01T05:52:02.740Z,11.20
2022-09-01T05:54:33.054Z,11.80
2022-09-01T05:57:17.393Z,11.93
2022-09-01T05:59:54.372Z,12.80
2022-09-01T06:02:23.192Z,11.60
2022-09-01T06:04:52.893Z,11.57
2022-09-01T06:07:25.339Z,11.07
2022-09-01T06:09:54.988Z,10.80
2022-09-01T06:12:23.499Z,11.47
2022-09-01T06:14:54.395Z,12.30
2022-09-01T06:17:24.903Z,11.90
2022-09-01T06:19:56.053Z,10.60
2022-09-01T06:22:25.681Z,10.70
2022-09-01T06:25:01.002Z,10.40
2022-09-01T06:27:30.316Z,10.33
2022-09-01T06:29:58.596Z,9.50
2022-09-01T06:32:27.063Z,10.70
2022-09-01T06:34:58.230Z,8.90
2022-09-01T06:37:26.729Z,9.00
2022-09-01T06:39:57.675Z,9.97
2022-09-01T06:42:26.287Z,9.47
2022-09-01T06:44:54.559Z,9.10
2022-09-01T06:47:22.627Z,9.63
2022-09-01T06:49:55.918Z,9.50
2022-09-01T06:52:26.554Z,8.93
2022-09-01T06:54:56.329Z,9.73
2022-09-01T07:00:19.210Z,10.00
2022-09-01T07:02:48.323Z,9.33
2022-09-01T07:08:13.503Z,9.70
2022-09-01T07:13:35.726Z,9.70
2022-09-01T07:18:58.898Z,9.30
2022-09-01T07:22:06.671Z,9.20
2022-09-01T07:24:18.141Z,10.50
2022-09-01T07:26:49.376Z,8.93
2022-09-01T07:29:21.764Z,9.10
2022-09-01T07:32:41.121Z,8.13
2022-09-01T07:43:15.547Z,8.80
2022-09-01T07:45:58.280Z,7.30
2022-09-01T07:48:36.643Z,8.00
2022-09-01T07:51:36.047Z,7.63
2022-09-01T07:54:05.425Z,7.47
2022-09-01T07:56:39.461Z,7.53
2022-09-01T07:59:15.084Z,8.43
2022-09-01T08:01:43.852Z,7.60
2022-09-01T08:04:12.363Z,7.13
2022-09-01T08:06:41.199Z,7.00
2022-09-01T08:09:11.650Z,7.57
2022-09-01T08:12:01.070Z,7.60
2022-09-01T08:14:33.848Z,7.47
2022-09-01T08:17:16.909Z,6.73
2022-09-01T08:19:47.367Z,6.43
2022-09-01T08:22:15.778Z,7.00
2022-09-01T08:24:43.772Z,7.07
2022-09-01T08:27:11.838Z,6.80
2022-09-01T08:29:41.304Z,5.60
2022-09-01T08:32:09.265Z,6.40
2022-09-01T08:34:37.568Z,7.20
2022-09-01T08:37:05.855Z,5.80
2022-09-01T08:39:34.223Z,6.27
2022-09-01T08:42:10.777Z,6.07
2022-09-01T08:44:47.766Z,5.87
2022-09-01T08:47:28.767Z,5.60
2022-09-01T08:50:01.686Z,6.27
2022-09-01T08:52:33.738Z,5.77
2022-09-01T08:55:07.203Z,6.07
2022-09-01T08:57:37.701Z,5.83
2022-09-01T09:00:09.826Z,7.00
2022-09-01T09:02:58.567Z,6.70
2022-09-01T09:05:42.524Z,6.03
2022-09-01T09:08:26.696Z,6.50
2022-09-01T09:11:05.433Z,6.97
2022-09-01T09:13:42.720Z,6.30
2022-09-01T09:16:16.706Z,6.83
2022-09-01T09:18:56.897Z,6.27
2022-09-01T09:21:29.977Z,6.60
2022-09-01T09:24:07.295Z,6.80
2022-09-01T09:26:42.754Z,5.23
2022-09-01T09:29:11.638Z,6.57
2022-09-01T09:31:49.945Z,6.27
2022-09-01T09:34:32.442Z,5.87
2022-09-01T09:37:16.885Z,5.33
2022-09-01T09:39:45.319Z,6.17
2022-09-01T09:42:16.066Z,6.70
2022-09-01T09:44:48.193Z,6.10
2022-09-01T09:47:43.957Z,5.87
2022-09-01T09:50:20.667Z,5.80
2022-09-01T09:52:49.349Z,4.90
2022-09-01T09:55:25.389Z,5.30
2022-09-01T09:57:57.083Z,6.00
2022-09-01T10:00:27.555Z,5.37
2022-09-01T10:03:01.304Z,6.17
2022-09-01T10:05:43.241Z,6.20
2022-09-01T10:08:14.802Z,5.67
2022-09-01T10:10:45.817Z,5.73
2022-09-01T10:13:27.580Z,6.10
2022-09-01T10:15:58.584Z,5.50
2022-09-01T10:18:34.198Z,5.50
2022-09-01T10:21:04.698Z,5.43
2022-09-01T10:23:37.048Z,4.77
2022-09-01T10:26:09.706Z,4.97
2022-09-01T10:28:50.716Z,5.13
2022-09-01T10:31:19.992Z,3.77
2022-09-01T10:33:50.208Z,4.17
2022-09-01T10:36:19.907Z,4.50
2022-09-01T10:38:53.815Z,4.20
2022-09-01T10:42:00.805Z,3.00
2022-09-01T10:44:34.351Z,3.07
2022-09-01T10:47:13.795Z,3.30
2022-09-01T10:50:01.501Z,3.30
2022-09-01T10:53:01.187Z,3.40
2022-09-01T10:55:45.440Z,2.70
2022-09-01T11:02:42.107Z,2.30
2022-09-01T11:05:20.376Z,2.70
2022-09-01T11:08:15.227Z,2.40
2022-09-01T11:10:50.250Z,2.17
2022-09-01T11:13:38.690Z,2.80
2022-09-01T11:16:49.555Z,2.47
2022-09-01T11:19:41.189Z,2.30
2022-09-01T11:22:28.181Z,2.63
2022-09-01T11:25:41.295Z,3.00
2022-09-01T11:28:42.839Z,2.97
2022-09-01T11:31:29.810Z,2.23
2022-09-01T11:34:15.142Z,2.70
2022-09-01T11:37:12.948Z,2.20
2022-09-01T11:39:48.980Z,2.40
2022-09-01T11:42:22.327Z,2.20
2022-09-01T11:45:00.732Z,1.90
2022-09-01T11:47:32.826Z,2.20
2022-09-01T11:50:03.245Z,2.10
2022-09-01T11:52:33.566Z,2.63
2022-09-01T11:55:01.574Z,2.20
2022-09-01T11:57:32.756Z,2.63
2022-09-01T12:00:05.325Z,2.50
2022-09-01T12:02:36.838Z,1.87
2022-09-01T12:05:25.899Z,1.70
2022-09-01T12:07:54.476Z,2.00
2022-09-01T12:10:31.754Z,1.90
2022-09-01T12:13:05.772Z,2.40
2022-09-01T12:15:40.995Z,2.43
2022-09-01T12:18:19.097Z,1.90
2022-09-01T12:23:24.599Z,2.50
2022-09-01T12:25:55.782Z,2.70
2022-09-01T12:28:24.931Z,3.07
2022-09-01T12:30:55.409Z,3.07
2022-09-01T12:33:24.839Z,2.87
2022-09-01T12:35:59.308Z,2.67
2022-09-01T12:38:31.404Z,2.70
2022-09-01T12:41:00.003Z,2.67
2022-09-01T12:43:34.201Z,2.70
2022-09-01T12:46:04.850Z,2.10
2022-09-01T12:48:34.935Z,2.60
2022-09-01T12:51:07.076Z,2.27
2022-09-01T12:53:37.397Z,2.20
2022-09-01T12:56:22.753Z,2.27
2022-09-01T12:58:54.897Z,2.07
2022-09-01T13:01:32.396Z,2.20
2022-09-01T13:04:16.432Z,2.67
2022-09-01T13:06:44.463Z,2.33
2022-09-01T13:09:12.527Z,2.10
2022-09-01T13:14:31.271Z,2.53
2022-09-01T13:17:00.895Z,2.50
2022-09-01T13:19:30.601Z,3.03
2022-09-01T13:21:59.022Z,2.53
2022-09-01T13:24:31.147Z,2.40
2022-09-01T13:29:48.476Z,2.30
2022-09-01T13:32:21.601Z,2.03
2022-09-01T13:34:51.844Z,2.27
2022-09-01T13:37:20.440Z,2.33
2022-09-01T13:39:48.685Z,1.90
2022-09-01T13:42:17.327Z,2.23
2022-09-01T13:44:48.418Z,2.30
2022-09-01T13:47:35.425Z,2.40
2022-09-01T13:50:12.057Z,2.37
2022-09-01T13:52:41.668Z,2.20
2022-09-01T13:55:13.600Z,2.37
2022-09-01T13:57:41.679Z,2.03
2022-09-01T14:00:12.820Z,2.50
2022-09-01T14:02:48.947Z,2.50
2022-09-01T14:05:17.725Z,2.23
2022-09-01T14:07:45.933Z,2.13
2022-09-01T14:10:14.766Z,2.20
2022-09-01T14:12:43.612Z,1.67
2022-09-01T14:15:15.971Z,2.60
2022-09-01T14:17:47.678Z,2.20
2022-09-01T14:20:18.269Z,2.30
2022-09-01T14:22:46.658Z,2.63
2022-09-01T14:25:15.577Z,2.50
2022-09-01T14:27:43.911Z,2.77
2022-09-01T14:30:15.192Z,2.40
2022-09-01T14:32:43.169Z,2.13
2022-09-01T14:35:12.964Z,2.70
2022-09-01T14:37:41.608Z,2.20
2022-09-01T14:40:16.736Z,2.27
2022-09-01T14:42:49.528Z,2.20
2022-09-01T14:45:19.552Z,2.40
2022-09-01T14:47:48.843Z,2.33
2022-09-01T14:50:22.769Z,2.33
2022-09-01T14:52:54.009Z,2.10
2022-09-01T14:55:22.531Z,1.80
2022-09-01T14:57:50.640Z,2.17
2022-09-01T15:00:18.921Z,2.47
2022-09-01T15:02:48.061Z,1.70
2022-09-01T15:05:17.642Z,2.00
2022-09-01T15:07:45.999Z,1.90
2022-09-01T15:10:24.342Z,1.77
2022-09-01T15:12:53.571Z,1.50
2022-09-01T15:15:21.829Z,1.57
2022-09-01T15:17:49.938Z,1.50
2022-09-01T15:20:37.128Z,1.53
2022-09-01T15:23:05.471Z,1.70
2022-09-01T15:25:33.700Z,1.70
2022-09-01T15:28:01.928Z,1.77
2022-09-01T15:30:29.992Z,1.80
2022-09-01T15:32:57.995Z,1.83
2022-09-01T15:35:29.456Z,2.00
2022-09-01T15:37:58.030Z,1.70
2022-09-01T15:40:27.032Z,1.67
2022-09-01T15:42:56.022Z,1.77
2022-09-01T15:45:26.153Z,1.23
2022-09-01T15:47:54.486Z,1.50
2022-09-01T15:50:27.308Z,1.43
2022-09-01T15:52:59.834Z,1.83
2022-09-01T15:55:29.799Z,1.70
2022-09-01T15:57:58.901Z,1.50
2022-09-01T16:00:28.447Z,1.30
2022-09-01T16:03:01.827Z,1.50
2022-09-01T16:05:30.475Z,1.67
2022-09-01T16:08:01.482Z,1.37
2022-09-01T16:10:33.598Z,2.10
2022-09-01T16:13:04.945Z,1.60
2022-09-01T16:15:35.275Z,1.80
2022-09-01T16:18:23.348Z,1.40
2022-09-01T16:21:00.261Z,1.43
2022-09-01T16:23:35.448Z,1.20
2022-09-01T16:26:03.524Z,1.40
2022-09-01T16:28:35.516Z,1.60
2022-09-01T16:31:09.469Z,1.07
2022-09-01T16:36:24.768Z,1.70
2022-09-01T16:39:00.015Z,1.20
2022-09-01T16:41:43.161Z,1.10
2022-09-01T16:44:26.726Z,1.60
2022-09-01T16:47:03.881Z,1.30
2022-09-01T16:49:37.877Z,1.50
2022-09-01T16:52:11.116Z,1.50
2022-09-01T16:54:54.263Z,1.50
2022-09-01T16:57:29.508Z,1.50
2022-09-01T17:00:01.481Z,1.77
2022-09-01T17:02:38.562Z,1.50
2022-09-01T17:05:18.494Z,1.23
2022-09-01T17:07:52.642Z,1.63
2022-09-01T17:10:33.447Z,1.60
2022-09-01T17:13:16.004Z,1.30
2022-09-01T17:15:48.159Z,1.63
2022-09-01T17:18:22.829Z,1.20
2022-09-01T17:20:58.152Z,1.30
2022-09-01T17:23:29.277Z,1.30
2022-09-01T17:26:03.805Z,1.70
2022-09-01T17:28:36.927Z,1.47
2022-09-01T17:31:14.502Z,1.63
2022-09-01T17:33:58.825Z,1.53
2022-09-01T17:36:44.603Z,1.30
2022-09-01T17:39:26.329Z,1.27
2022-09-01T17:42:00.512Z,1.80
2022-09-01T17:44:35.886Z,1.40
2022-09-01T17:47:12.701Z,1.80
2022-09-01T17:49:50.253Z,1.97
2022-09-01T17:52:24.506Z,1.60
2022-09-01T17:54:59.468Z,1.67
2022-09-01T17:57:37.986Z,1.87
2022-09-01T18:00:23.604Z,1.57
2022-09-01T18:03:11.207Z,2.17
2022-09-01T18:05:43.469Z,1.47
2022-09-01T18:08:26.928Z,1.53
2022-09-01T18:11:01.310Z,1.53
2022-09-01T18:13:52.926Z,1.90
2022-09-01T18:16:24.922Z,1.80
2022-09-01T18:18:53.710Z,1.87
2022-09-01T18:21:24.673Z,1.70
2022-09-01T18:23:58.320Z,2.00
2022-09-01T18:26:32.425Z,1.97
2022-09-01T18:29:04.744Z,1.80
2022-09-01T18:32:00.685Z,1.77
2022-09-01T18:34:39.656Z,1.77
2022-09-01T18:37:17.052Z,1.80
2022-09-01T18:39:58.509Z,1.83
2022-09-01T18:42:35.921Z,1.80
2022-09-01T18:45:15.838Z,1.90
2022-09-01T18:47:52.374Z,1.70
2022-09-01T18:50:24.524Z,2.27
2022-09-01T18:53:04.799Z,1.73
2022-09-01T18:55:43.716Z,2.00
2022-09-01T18:58:26.561Z,1.90
2022-09-01T19:01:03.896Z,1.83
2022-09-01T19:03:36.027Z,1.93
2022-09-01T19:06:23.392Z,1.50
2022-09-01T19:09:01.483Z,2.27
2022-09-01T19:11:40.906Z,1.60
2022-09-01T19:14:18.271Z,1.73
2022-09-01T19:17:03.023Z,1.80
2022-09-01T19:19:39.925Z,1.77
2022-09-01T19:22:09.151Z,2.20
2022-09-01T19:24:43.392Z,1.97
2022-09-01T19:27:14.189Z,2.03
2022-09-01T19:29:47.884Z,1.80
2022-09-01T19:32:21.668Z,1.70
2022-09-01T19:34:54.648Z,1.80
2022-09-01T19:37:23.131Z,1.77
2022-09-01T19:39:54.215Z,1.90
2022-09-01T19:42:29.721Z,1.60
2022-09-01T19:45:06.984Z,2.27
2022-09-01T19:47:42.988Z,2.07
2022-09-01T19:50:18.555Z,1.80
2022-09-01T19:52:55.145Z,2.07
2022-09-01T19:55:31.368Z,1.53
2022-09-01T19:58:04.260Z,1.80
2022-09-01T20:00:41.958Z,1.50
2022-09-01T20:03:15.895Z,1.67
2022-09-01T20:05:47.621Z,1.67
2022-09-01T20:08:21.147Z,2.03
2022-09-01T20:10:58.342Z,1.83
2022-09-01T20:13:44.602Z,1.53
2022-09-01T20:16:23.306Z,1.70
2022-09-01T20:18:56.025Z,2.03
2022-09-01T20:21:23.998Z,2.00
2022-09-01T20:23:57.207Z,1.67
2022-09-01T20:26:32.687Z,1.73
2022-09-01T20:29:06.951Z,1.47
2022-09-01T20:31:38.843Z,1.53
2022-09-01T20:34:12.383Z,1.73
2022-09-01T20:36:44.603Z,1.90
2022-09-01T20:39:38.144Z,1.93
2022-09-01T20:42:09.919Z,1.57
2022-09-01T20:44:45.830Z,1.70
2022-09-01T20:47:13.956Z,1.77
2022-09-01T20:49:43.590Z,2.17
2022-09-01T20:52:16.466Z,1.60
2022-09-01T20:54:52.214Z,1.63
2022-09-01T20:57:34.169Z,2.20
2022-09-01T21:00:07.122Z,2.10
2022-09-01T21:02:45.581Z,1.70
2022-09-01T21:05:26.061Z,1.80
2022-09-01T21:08:10.063Z,2.17
2022-09-01T21:10:59.256Z,1.92
2022-09-01T21:13:49.081Z,2.30
2022-09-01T21:16:28.817Z,2.40
2022-09-01T21:19:04.806Z,2.60
2022-09-01T21:21:38.957Z,2.10
2022-09-01T21:24:07.737Z,2.00
2022-09-01T21:26:38.099Z,2.37
2022-09-01T21:29:25.464Z,2.33
2022-09-01T21:31:53.636Z,2.57
2022-09-01T21:34:21.763Z,2.03
2022-09-01T21:36:51.056Z,2.80
2022-09-01T21:39:23.789Z,2.20
2022-09-01T21:41:51.801Z,2.23
2022-09-01T21:44:19.902Z,3.00
2022-09-01T21:46:47.984Z,2.57
2022-09-01T21:49:16.026Z,2.70
2022-09-01T21:51:44.380Z,2.57
2022-09-01T21:54:13.853Z,2.37
2022-09-01T21:56:41.989Z,2.40
2022-09-01T21:59:11.508Z,2.40
2022-09-01T22:01:39.583Z,2.37
2022-09-01T22:04:08.376Z,2.20
2022-09-01T22:06:36.445Z,2.80
2022-09-01T22:09:20.353Z,2.37
2022-09-01T22:11:52.174Z,2.90
2022-09-01T22:14:21.604Z,3.10
2022-09-01T22:16:50.892Z,2.90
2022-09-01T22:19:20.232Z,2.47
2022-09-01T22:21:48.476Z,2.60
2022-09-01T22:24:19.382Z,2.43
2022-09-01T22:26:48.805Z,2.30
2022-09-01T22:29:18.606Z,2.70
2022-09-01T22:31:46.755Z,2.70
2022-09-01T22:34:14.828Z,2.83
2022-09-01T22:36:46.012Z,3.07
2022-09-01T22:39:16.602Z,2.70
2022-09-01T22:41:44.709Z,2.60
2022-09-01T22:44:13.331Z,2.50
2022-09-01T22:46:42.771Z,3.10
2022-09-01T22:49:12.435Z,3.07
2022-09-01T22:51:42.151Z,3.20
2022-09-01T22:54:11.656Z,2.90
2022-09-01T22:56:41.742Z,2.53
2022-09-01T22:59:12.814Z,2.83
2022-09-01T23:01:44.970Z,2.90
2022-09-01T23:04:14.975Z,2.30
2022-09-01T23:06:45.733Z,2.70
2022-09-01T23:09:16.028Z,3.10
2022-09-01T23:11:44.653Z,2.87
2022-09-01T23:14:12.814Z,3.00
2022-09-01T23:16:41.158Z,2.80
2022-09-01T23:19:10.673Z,2.80
2022-09-01T23:21:39.886Z,2.67
2022-09-01T23:24:08.469Z,2.70
2022-09-01T23:26:36.951Z,3.27
2022-09-01T23:29:06.226Z,2.60
2022-09-01T23:31:36.839Z,3.57
2022-09-01T23:34:05.365Z,2.90
2022-09-01T23:36:36.057Z,2.13
2022-09-01T23:39:05.074Z,2.53
2022-09-01T23:41:35.791Z,2.50
2022-09-01T23:44:06.757Z,3.13
2022-09-01T23:46:37.916Z,3.20
2022-09-01T23:49:06.193Z,3.00
2022-09-01T23:51:35.933Z,2.73
2022-09-01T23:54:04.673Z,3.23
2022-09-01T23:56:33.731Z,3.13
2022-09-01T23:59:02.441Z,2.50
